createdAt,value
2023-05-05T00:00:19.048Z,29.957
2023-05-05T00:05:18.995Z,29.960
2023-05-05T00:10:15.848Z,29.960
2023-05-05T00:15:15.805Z,29.962
2023-05-05T00:20:16.059Z,29.962
2023-05-05T00:25:16.012Z,29.963
2023-05-05T00:30:18.992Z,29.965
2023-05-05T00:35:18.996Z,29.969
2023-05-05T00:40:18.951Z,29.969
2023-05-05T00:45:18.982Z,29.969
2023-05-05T00:50:18.961Z,29.971
2023-05-05T00:55:18.971Z,29.971
2023-05-05T01:00:16.036Z,29.971
2023-05-05T01:05:16.060Z,29.973
2023-05-05T01:10:20.203Z,29.975
2023-05-05T01:15:19.093Z,29.978
2023-05-05T01:20:19.021Z,29.978
2023-05-05T01:25:18.999Z,29.980
2023-05-05T01:30:19.002Z,29.982
2023-05-05T01:35:16.020Z,29.983
2023-05-05T01:40:19.077Z,29.984
2023-05-05T01:45:19.074Z,29.985
2023-05-05T01:50:19.037Z,29.988
2023-05-05T01:55:19.039Z,29.987
2023-05-05T02:00:19.034Z,29.988
2023-05-05T02:05:16.026Z,29.990
2023-05-05T02:10:19.192Z,29.991
2023-05-05T02:15:19.064Z,29.992
2023-05-05T02:20:19.051Z,29.992
2023-05-05T02:25:19.064Z,29.993
2023-05-05T02:30:16.101Z,29.994
2023-05-05T02:35:16.189Z,29.995
2023-05-05T02:40:19.052Z,29.997
2023-05-05T02:45:15.870Z,29.999
2023-05-05T02:50:19.074Z,30.001
2023-05-05T02:55:16.087Z,30.000
2023-05-05T03:00:19.119Z,29.998
2023-05-05T03:05:19.053Z,29.998
2023-05-05T03:10:16.169Z,29.998
2023-05-05T03:15:16.137Z,30.001
2023-05-05T03:20:19.119Z,30.001
2023-05-05T03:25:16.095Z,30.003
2023-05-05T03:30:19.082Z,30.002
2023-05-05T03:35:19.045Z,30.003
2023-05-05T03:40:19.074Z,30.006
2023-05-05T03:45:19.049Z,30.008
2023-05-05T03:50:16.122Z,30.008
2023-05-05T03:55:16.137Z,30.010
2023-05-05T04:00:20.381Z,30.011
2023-05-05T04:05:20.340Z,30.012
2023-05-05T04:10:20.388Z,30.014
2023-05-05T04:15:20.371Z,30.015
2023-05-05T04:20:20.310Z,30.016
2023-05-05T04:25:17.390Z,30.018
2023-05-05T04:30:17.394Z,30.019
2023-05-05T04:35:17.387Z,30.021
2023-05-05T04:40:18.360Z,30.022
2023-05-05T04:45:18.330Z,30.023
2023-05-05T04:50:18.388Z,30.023
2023-05-05T04:55:20.456Z,30.026
2023-05-05T05:00:18.361Z,30.026
2023-05-05T05:05:15.440Z,30.027
2023-05-05T05:10:15.417Z,30.028
2023-05-05T05:15:18.339Z,30.030
2023-05-05T05:20:18.342Z,30.032
2023-05-05T05:25:18.337Z,30.032
2023-05-05T05:30:18.336Z,30.031
2023-05-05T05:35:18.429Z,30.029
2023-05-05T05:40:15.464Z,30.031
2023-05-05T05:45:15.445Z,30.031
2023-05-05T05:50:18.378Z,30.032
2023-05-05T05:55:18.387Z,30.033
2023-05-05T06:00:18.433Z,30.032
2023-05-05T06:05:18.353Z,30.033
2023-05-05T06:10:26.667Z,30.033
2023-05-05T06:15:15.396Z,30.031
2023-05-05T06:20:15.400Z,30.034
2023-05-05T06:25:15.506Z,30.035
2023-05-05T06:30:18.469Z,30.036
2023-05-05T06:35:18.384Z,30.037
2023-05-05T06:40:18.432Z,30.037
2023-05-05T06:45:15.498Z,30.041
2023-05-05T06:50:15.425Z,30.041
2023-05-05T06:55:15.437Z,30.041
2023-05-05T07:00:18.416Z,30.044
2023-05-05T07:05:18.443Z,30.043
2023-05-05T07:10:18.404Z,30.045
2023-05-05T07:15:27.951Z,30.045
2023-05-05T07:20:15.460Z,30.046
2023-05-05T07:25:15.510Z,30.049
2023-05-05T07:30:19.362Z,30.049
2023-05-05T07:35:18.398Z,30.050
2023-05-05T07:40:18.397Z,30.050
2023-05-05T07:45:18.617Z,30.052
2023-05-05T07:50:15.487Z,30.053
2023-05-05T07:55:15.503Z,30.053
2023-05-05T08:00:18.443Z,30.053
2023-05-05T08:05:18.452Z,30.054
2023-05-05T08:10:15.478Z,30.056
2023-05-05T08:15:15.445Z,30.057
2023-05-05T08:20:18.471Z,30.058
2023-05-05T08:25:18.476Z,30.059
2023-05-05T08:30:18.510Z,30.062
2023-05-05T08:35:18.452Z,30.061
2023-05-05T08:40:15.559Z,30.062
2023-05-05T08:45:18.457Z,30.063
2023-05-05T08:50:15.534Z,30.064
2023-05-05T08:55:18.501Z,30.064
2023-05-05T09:00:18.502Z,30.065
2023-05-05T09:05:15.544Z,30.068
2023-05-05T09:10:18.556Z,30.070
2023-05-05T09:15:18.482Z,30.070
2023-05-05T09:20:15.558Z,30.072
2023-05-05T09:25:18.468Z,30.077
2023-05-05T09:30:18.572Z,30.079
2023-05-05T09:35:15.570Z,30.080
2023-05-05T09:40:15.516Z,30.080
2023-05-05T09:45:18.641Z,30.081
2023-05-05T09:50:19.110Z,30.086
2023-05-05T09:55:18.596Z,30.088
2023-05-05T10:00:18.544Z,30.088
2023-05-05T10:05:18.744Z,30.090
2023-05-05T10:10:15.404Z,30.091
2023-05-05T10:15:18.539Z,30.094
2023-05-05T10:20:18.588Z,30.097
2023-05-05T10:25:18.578Z,30.097
2023-05-05T10:30:15.573Z,30.099
2023-05-05T10:35:18.548Z,30.100
2023-05-05T10:40:18.534Z,30.102
2023-05-05T10:45:15.375Z,30.102
2023-05-05T10:50:18.572Z,30.104
2023-05-05T10:55:18.555Z,30.108
2023-05-05T11:00:18.545Z,30.109
2023-05-05T11:05:18.676Z,30.112
2023-05-05T11:10:18.516Z,30.112
2023-05-05T11:15:18.541Z,30.117
2023-05-05T11:20:18.640Z,30.119
2023-05-05T11:25:15.534Z,30.118
2023-05-05T11:30:15.378Z,30.119
2023-05-05T11:35:18.542Z,30.121
2023-05-05T11:40:15.613Z,30.120
2023-05-05T11:45:18.551Z,30.122
2023-05-05T11:50:18.585Z,30.123
2023-05-05T11:55:18.516Z,30.126
2023-05-05T12:00:15.605Z,30.128
2023-05-05T12:05:15.603Z,30.128
2023-05-05T12:10:15.583Z,30.132
2023-05-05T12:15:18.634Z,30.133
2023-05-05T12:20:15.585Z,30.133
2023-05-05T12:25:18.656Z,30.137
2023-05-05T12:30:18.807Z,30.138
2023-05-05T12:35:18.567Z,30.140
2023-05-05T12:40:18.556Z,30.141
2023-05-05T12:45:18.561Z,30.141
2023-05-05T12:50:18.586Z,30.143
2023-05-05T12:55:18.611Z,30.145
2023-05-05T13:00:15.755Z,30.145
2023-05-05T13:05:18.586Z,30.146
2023-05-05T13:10:18.686Z,30.147
2023-05-05T13:15:18.620Z,30.147
2023-05-05T13:20:15.622Z,30.147
2023-05-05T13:25:18.606Z,30.148
2023-05-05T13:30:18.606Z,30.150
2023-05-05T13:35:18.604Z,30.153
2023-05-05T13:40:18.581Z,30.157
2023-05-05T13:45:18.585Z,30.157
2023-05-05T13:50:18.601Z,30.159
2023-05-05T13:55:18.619Z,30.162
2023-05-05T14:00:18.582Z,30.164
2023-05-05T14:05:18.577Z,30.164
2023-05-05T14:10:15.706Z,30.166
2023-05-05T14:15:18.603Z,30.168
2023-05-05T14:20:18.662Z,30.167
2023-05-05T14:25:18.618Z,30.168
2023-05-05T14:30:18.697Z,30.168
2023-05-05T14:35:18.591Z,30.170
2023-05-05T14:40:18.660Z,30.172
2023-05-05T14:45:18.648Z,30.171
2023-05-05T14:50:15.712Z,30.172
2023-05-05T14:55:15.739Z,30.171
2023-05-05T15:00:18.665Z,30.173
2023-05-05T15:05:15.737Z,30.174
2023-05-05T15:10:15.768Z,30.173
2023-05-05T15:15:15.718Z,30.177
2023-05-05T15:20:18.792Z,30.177
2023-05-05T15:25:15.573Z,30.178
2023-05-05T15:30:15.833Z,30.179
2023-05-05T15:35:15.728Z,30.180
2023-05-05T15:40:18.730Z,30.179
2023-05-05T15:45:18.698Z,30.178
2023-05-05T15:50:15.752Z,30.178
2023-05-05T15:55:18.704Z,30.181
2023-05-05T16:00:15.692Z,30.183
2023-05-05T16:05:20.641Z,30.182
2023-05-05T16:10:18.726Z,30.183
2023-05-05T16:15:15.740Z,30.184
2023-05-05T16:20:18.702Z,30.184
2023-05-05T16:25:18.638Z,30.182
2023-05-05T16:30:15.786Z,30.181
2023-05-05T16:35:15.734Z,30.180
2023-05-05T16:40:15.536Z,30.179
2023-05-05T16:45:15.773Z,30.180
2023-05-05T16:50:18.715Z,30.181
2023-05-05T16:55:18.709Z,30.181
2023-05-05T17:00:18.677Z,30.179
2023-05-05T17:05:18.759Z,30.179
2023-05-05T17:10:18.745Z,30.179
2023-05-05T17:15:15.837Z,30.178
2023-05-05T17:20:15.760Z,30.177
2023-05-05T17:25:15.813Z,30.176
2023-05-05T17:30:15.803Z,30.177
2023-05-05T17:35:18.782Z,30.176
2023-05-05T17:40:18.777Z,30.174
2023-05-05T17:45:18.732Z,30.174
2023-05-05T17:50:18.718Z,30.172
2023-05-05T17:55:18.724Z,30.171
2023-05-05T18:00:15.747Z,30.167
2023-05-05T18:05:18.770Z,30.167
2023-05-05T18:10:18.747Z,30.166
2023-05-05T18:15:18.714Z,30.164
2023-05-05T18:20:18.727Z,30.160
2023-05-05T18:25:18.746Z,30.158
2023-05-05T18:30:15.762Z,30.154
2023-05-05T18:35:15.763Z,30.150
2023-05-05T18:40:18.772Z,30.149
2023-05-05T18:45:19.116Z,30.146
2023-05-05T18:50:18.864Z,30.147
2023-05-05T18:55:18.770Z,30.143
2023-05-05T19:00:15.791Z,30.141
2023-05-05T19:05:15.863Z,30.141
2023-05-05T19:10:15.833Z,30.140
2023-05-05T19:15:18.825Z,30.139
2023-05-05T19:20:15.602Z,30.138
2023-05-05T19:25:18.796Z,30.136
2023-05-05T19:30:15.848Z,30.135
2023-05-05T19:35:18.761Z,30.132
2023-05-05T19:40:15.808Z,30.132
2023-05-05T19:45:18.806Z,30.130
2023-05-05T19:50:18.795Z,30.130
2023-05-05T19:55:15.810Z,30.129
2023-05-05T20:00:18.855Z,30.129
2023-05-05T20:05:15.870Z,30.128
2023-05-05T20:10:18.803Z,30.126
2023-05-05T20:15:15.823Z,30.129
2023-05-05T20:20:19.066Z,30.128
2023-05-05T20:25:18.807Z,30.126
2023-05-05T20:30:18.773Z,30.128
2023-05-05T20:35:15.644Z,30.128
2023-05-05T20:40:18.796Z,30.126
2023-05-05T20:45:15.875Z,30.128
2023-05-05T20:50:15.880Z,30.128
2023-05-05T20:55:15.916Z,30.128
2023-05-05T21:00:18.880Z,30.128
2023-05-05T21:05:18.783Z,30.128
2023-05-05T21:10:18.818Z,30.127
2023-05-05T21:15:15.709Z,30.126
2023-05-05T21:20:15.854Z,30.126
2023-05-05T21:25:18.873Z,30.127
2023-05-05T21:30:18.917Z,30.127
2023-05-05T21:35:15.880Z,30.127
2023-05-05T21:40:18.874Z,30.128
2023-05-05T21:45:15.891Z,30.126
2023-05-05T21:50:15.888Z,30.122
2023-05-05T21:55:18.916Z,30.123
2023-05-05T22:00:18.896Z,30.125
2023-05-05T22:05:15.877Z,30.125
2023-05-05T22:10:18.913Z,30.122
2023-05-05T22:15:15.851Z,30.120
2023-05-05T22:20:18.841Z,30.120
2023-05-05T22:25:18.823Z,30.117
2023-05-05T22:30:18.826Z,30.119
2023-05-05T22:35:15.704Z,30.119
2023-05-05T22:40:18.885Z,30.121
2023-05-05T22:45:15.880Z,30.122
2023-05-05T22:50:18.876Z,30.122
2023-05-05T22:55:18.813Z,30.121
2023-05-05T23:00:18.826Z,30.122
2023-05-05T23:05:15.924Z,30.119
2023-05-05T23:10:18.884Z,30.118
2023-05-05T23:15:18.844Z,30.120
2023-05-05T23:20:15.945Z,30.122
2023-05-05T23:25:18.888Z,30.120
2023-05-05T23:30:18.962Z,30.121
2023-05-05T23:35:16.014Z,30.121
2023-05-05T23:40:15.956Z,30.121
2023-05-05T23:45:18.090Z,30.120
2023-05-05T23:50:18.859Z,30.120
2023-05-05T23:55:18.866Z,30.122
